CheckWX is a tool to help pilots better visualize weather data.  It is not intended as a substitute for an official pre-flight weather briefing.

06:14:21 UTC

M02 METAR
Dickson Municipal Airport
Dickson, Tennessee, USA
Current

19 mins ago

KM02 220555Z AUTO 00000KT 10SM CLR 13/03 A3014 RMK A01
Observed
Apr-22 @ 05:55 UTC
Visibility
10 SM
Flight Rules
VFR
Cloud Levels
  • Clear skies
Temperature
13°C / 55°F
Dewpoint
C / 37°F
Humidity
51%
Altimeter
30.14" Hg
Pressure
1020.62 hPa
Previous

39 mins ago

KM02 220535Z AUTO 00000KT 10SM CLR 13/03 A3014 RMK A01
Observed
Apr-22 @ 05:35 UTC
Visibility
10 SM
Flight Rules
VFR
Cloud Levels
  • Clear skies
Temperature
13°C / 55°F
Dewpoint
C / 37°F
Humidity
51%
Altimeter
30.14" Hg
Pressure
1020.62 hPa
Previous

59 mins ago

KM02 220515Z AUTO 14003KT 10SM CLR 15/03 A3014 RMK A01
Observed
Apr-22 @ 05:15 UTC
Wind
  • 140° at 3 KTS
Visibility
10 SM
Flight Rules
VFR
Cloud Levels
  • Clear skies
Temperature
15°C / 59°F
Dewpoint
C / 37°F
Humidity
45%
Altimeter
30.14" Hg
Pressure
1020.62 hPa